CheckWX is a tool to help pilots better visualize weather data.  It is not intended as a substitute for an official pre-flight weather briefing.

18:22:58 UTC

UBBB METAR
Heydar Aliyev International Airport
Baku, Azerbaijan
Current

23 mins ago

UBBB 201800Z 18007KT 9999 SCT010 23/20 Q1009 R88/D NOSIG
Observed
Sep-20 @ 18:00 UTC
Wind
  • 180° at 7 KTS
Visibility
10,000+ meters
Flight Rules
VFR
Cloud Levels
  • Scattered at 1,000' AGL
Temperature
23°C / 73°F
Dewpoint
20°C / 68°F
Humidity
83%
Altimeter
29.79" Hg
Pressure
1008.92 hPa
Previous

53 mins ago

UBBB 201730Z 19006KT 9999 FEW010 22/20 Q1010 R88/D NOSIG
Observed
Sep-20 @ 17:30 UTC
Wind
  • 190° at 6 KTS
Visibility
10,000+ meters
Flight Rules
VFR
Cloud Levels
  • Few at 1,000' AGL
Temperature
22°C / 72°F
Dewpoint
20°C / 68°F
Humidity
88%
Altimeter
29.82" Hg
Pressure
1009.92 hPa
Previous

1 hour ago

UBBB 201700Z 20007KT 9999 FEW012 23/20 Q1010 R88/CLRD// NOSIG
Observed
Sep-20 @ 17:00 UTC
Wind
  • 200° at 7 KTS
Visibility
10,000+ meters
Flight Rules
VFR
Cloud Levels
  • Few at 1,200' AGL
Temperature
23°C / 73°F
Dewpoint
20°C / 68°F
Humidity
83%
Altimeter
29.82" Hg
Pressure
1009.92 hPa